Strona główna
METAR-TAF:

METAR-TAF

Lotnisko :

Port lotniczy Niamey

Niamey, Niger

Szerokość geograficzna: 13-29N, Długość geograficzna: 002-10E, wysokość: 223 m

Aktualna obserwacja pogody

Raport powstał 29 minut temu, godzina 23:00 UTC
Wiatr 5 kt od wschodnio-północny wschód
Temperatura 26°C
Wilgotność 12%
Ciśnienie 1011 hPa
Widzialność: 6000 m

METAR: DRRN 192300Z 07005KT 6000 NSC 26/M06 Q1011 NOSIG

czas: 00:29 (23:29 UTC)

Prognoza

Raport powstał 6 godziny i 29 minut temu, godzina 17:00 UTC
Prognoza ważna od 19 godzina 18 UTC do 20 godzina 24 UTC
Wiatr 6 kt od wschodnio-północny wschód
Widzialność: 4000 m
pył
Przejściowo
od 20 godzina 02 UTC do 20 godzina 08 UTC
Widzialność: 2500 m
Przejściowo
od 20 godzina 08 UTC do 20 godzina 12 UTC
Wiatr 16 kt od wschodnio-południowy wschód
Widzialność: 1200 m
zawieja pyłowa

TAF: DRRN 191700Z 1918/2024 06006KT 4000 DU NSC TEMPO 2002/2008 2500 TEMPO 2008/2012 12016KT 1200 BLDU

Obserwacja i prognoza pogody dla ponad 4000 lotnisk (raport METAR i TAF).

Dostępne stacje oznaczono żółtymi i czerwonymi punktami na mapie.

Najedź kursorem aby zobaczyć nazwę stacji.

Kliknij aby zobaczyć obserwacje i prognozy pogody.

Aby zmienić mapę: kliknij na zielony przycisk z czarnym krzyżykiem, aby powiększyć; na zielony przycisk z myślnikiem, aby pomniejszyć; na zielone strzałki, aby przejść do map sąsiednich.


METAR-TAF: